createdAt,value
2019-04-30T00:01:25.987Z,31.57
2019-04-30T00:04:11.175Z,35.50
2019-04-30T00:06:43.168Z,32.57
2019-04-30T00:09:19.270Z,36.30
2019-04-30T00:11:57.994Z,36.67
2019-04-30T00:14:27.719Z,37.33
2019-04-30T00:16:59.071Z,37.93
2019-04-30T00:19:31.050Z,37.73
2019-04-30T00:22:03.011Z,34.70
2019-04-30T00:24:35.491Z,38.33
2019-04-30T00:27:07.530Z,34.90
2019-04-30T00:29:39.674Z,34.97
2019-04-30T00:32:11.628Z,36.60
2019-04-30T00:34:45.498Z,35.23
2019-04-30T00:37:18.902Z,36.73
2019-04-30T00:39:52.954Z,37.27
2019-04-30T00:42:28.555Z,37.43
2019-04-30T00:44:59.750Z,35.17
2019-04-30T00:47:32.637Z,36.43
2019-04-30T00:50:05.666Z,36.17
2019-04-30T00:52:37.599Z,37.30
2019-04-30T00:55:09.655Z,38.10
2019-04-30T00:57:47.453Z,35.80
2019-04-30T01:00:19.730Z,36.23
2019-04-30T01:03:07.891Z,37.20
2019-04-30T01:05:39.631Z,37.63
2019-04-30T01:08:11.201Z,36.77
2019-04-30T01:10:43.280Z,35.60
2019-04-30T01:13:15.238Z,35.30
2019-04-30T01:15:49.090Z,36.63
2019-04-30T01:18:23.594Z,37.57
2019-04-30T01:20:54.917Z,37.07
2019-04-30T01:23:26.902Z,36.73
2019-04-30T01:25:59.196Z,36.30
2019-04-30T01:28:31.167Z,36.50
2019-04-30T01:31:03.140Z,36.77
2019-04-30T01:33:35.740Z,35.83
2019-04-30T01:36:09.660Z,36.03
2019-04-30T01:38:44.756Z,34.63
2019-04-30T01:41:15.601Z,35.20
2019-04-30T01:43:48.761Z,33.50
2019-04-30T01:46:21.056Z,32.93
2019-04-30T01:48:53.067Z,32.77
2019-04-30T01:51:25.015Z,31.93
2019-04-30T01:53:56.975Z,31.67
2019-04-30T01:56:40.312Z,30.93
2019-04-30T01:59:16.660Z,31.33
2019-04-30T02:01:48.833Z,31.53
2019-04-30T02:04:20.806Z,30.80
2019-04-30T02:06:52.764Z,31.53
2019-04-30T02:09:24.710Z,30.43
2019-04-30T02:11:56.665Z,27.37
2019-04-30T02:14:28.769Z,30.10
2019-04-30T02:17:00.764Z,30.67
2019-04-30T02:19:32.729Z,31.20
2019-04-30T02:22:04.653Z,30.73
2019-04-30T02:24:38.626Z,31.00
2019-04-30T02:27:10.659Z,30.97
2019-04-30T02:29:42.649Z,29.70
2019-04-30T02:32:14.575Z,29.10
2019-04-30T02:34:52.755Z,31.17
2019-04-30T02:37:30.090Z,31.43
2019-04-30T02:40:02.099Z,29.63
2019-04-30T02:42:34.104Z,27.27
2019-04-30T02:45:06.500Z,29.63
2019-04-30T02:47:39.990Z,30.23
2019-04-30T02:50:18.314Z,28.77
2019-04-30T02:52:46.183Z,27.27
2019-04-30T02:55:25.279Z,28.27
2019-04-30T02:57:59.418Z,27.73
2019-04-30T03:00:32.847Z,26.63
2019-04-30T03:03:04.996Z,26.50
2019-04-30T03:05:39.111Z,26.33
2019-04-30T03:08:10.872Z,26.60
2019-04-30T03:10:42.844Z,25.67
2019-04-30T03:13:14.778Z,24.13
2019-04-30T03:15:49.263Z,23.87
2019-04-30T03:18:26.187Z,24.50
2019-04-30T03:21:05.988Z,25.40
2019-04-30T03:23:39.130Z,23.80
2019-04-30T03:26:12.960Z,22.67
2019-04-30T03:28:45.029Z,21.73
2019-04-30T03:31:17.023Z,22.10
2019-04-30T03:33:52.432Z,23.77
2019-04-30T03:36:22.809Z,24.23
2019-04-30T03:38:54.751Z,24.03
2019-04-30T03:41:26.724Z,22.20
2019-04-30T03:44:16.807Z,23.13
2019-04-30T03:46:32.537Z,21.47
2019-04-30T03:49:04.509Z,21.20
2019-04-30T03:51:36.454Z,22.53
2019-04-30T03:54:10.114Z,20.00
2019-04-30T03:56:43.181Z,20.03
2019-04-30T03:59:15.118Z,20.80
2019-04-30T04:01:53.647Z,20.90
2019-04-30T04:04:40.138Z,19.57
2019-04-30T04:07:34.316Z,20.60
2019-04-30T04:10:15.891Z,17.23
2019-04-30T04:12:49.787Z,19.00
2019-04-30T04:15:21.705Z,19.43
2019-04-30T04:17:53.691Z,20.00
2019-04-30T04:20:25.624Z,18.73
2019-04-30T04:22:59.688Z,19.07
2019-04-30T04:25:31.636Z,18.77
2019-04-30T04:28:03.606Z,17.57
2019-04-30T04:30:35.562Z,18.87
2019-04-30T04:33:10.074Z,18.17
2019-04-30T04:35:41.388Z,18.50
2019-04-30T04:38:13.346Z,18.70
2019-04-30T04:40:45.278Z,18.30
2019-04-30T04:43:20.022Z,16.87
2019-04-30T04:45:51.122Z,17.00
2019-04-30T04:48:23.424Z,17.83
2019-04-30T04:50:55.429Z,17.90
2019-04-30T04:53:30.152Z,17.47
2019-04-30T04:56:01.325Z,16.53
2019-04-30T04:58:33.288Z,18.00
2019-04-30T05:01:05.245Z,18.57
2019-04-30T05:03:39.928Z,19.53
2019-04-30T05:06:12.073Z,19.23
2019-04-30T05:08:44.052Z,20.33
2019-04-30T05:11:15.994Z,20.17
2019-04-30T05:13:49.026Z,21.30
2019-04-30T05:16:21.102Z,22.23
2019-04-30T05:18:53.126Z,22.70
2019-04-30T05:21:25.070Z,22.13
2019-04-30T05:23:59.027Z,22.47
2019-04-30T05:26:30.907Z,23.10
2019-04-30T05:29:02.874Z,22.97
2019-04-30T05:31:34.859Z,22.57
2019-04-30T05:34:10.142Z,24.67
2019-04-30T05:36:40.678Z,24.03
2019-04-30T05:39:12.655Z,24.27
2019-04-30T05:41:44.620Z,23.03
2019-04-30T05:44:18.400Z,24.17
2019-04-30T05:46:50.458Z,24.27
2019-04-30T05:49:22.441Z,29.37
2019-04-30T05:51:55.885Z,28.93
2019-04-30T05:54:29.224Z,28.63
2019-04-30T05:57:01.378Z,30.63
2019-04-30T05:59:33.349Z,27.90
2019-04-30T06:02:05.425Z,30.00
2019-04-30T06:04:38.729Z,30.47
2019-04-30T06:07:10.811Z,29.97
2019-04-30T06:09:52.329Z,31.73
2019-04-30T06:12:59.471Z,32.13
2019-04-30T06:15:35.374Z,30.90
2019-04-30T06:18:13.633Z,30.03
2019-04-30T06:20:41.213Z,29.60
2019-04-30T06:23:13.196Z,29.77
2019-04-30T06:25:56.266Z,28.23
2019-04-30T06:28:19.845Z,28.47
2019-04-30T06:30:51.800Z,29.50
2019-04-30T06:33:23.777Z,29.33
2019-04-30T06:35:56.102Z,30.17
2019-04-30T06:38:29.175Z,31.13
2019-04-30T06:41:01.262Z,29.60
2019-04-30T06:43:33.246Z,28.73
2019-04-30T06:46:05.248Z,29.57
2019-04-30T06:48:37.182Z,28.33
2019-04-30T06:51:09.176Z,29.47
2019-04-30T06:53:41.090Z,28.93
2019-04-30T06:56:13.066Z,28.27
2019-04-30T06:58:45.211Z,29.20
2019-04-30T07:01:18.950Z,29.60
2019-04-30T07:03:51.060Z,28.37
2019-04-30T07:06:29.567Z,29.17
2019-04-30T07:09:08.700Z,29.00
2019-04-30T07:11:44.641Z,27.90
2019-04-30T07:14:16.676Z,26.80
2019-04-30T07:16:49.469Z,28.33
2019-04-30T07:19:31.947Z,28.43
2019-04-30T07:21:55.409Z,26.87
2019-04-30T07:24:29.482Z,31.33
2019-04-30T07:27:02.839Z,30.10
2019-04-30T07:29:34.922Z,30.73
2019-04-30T07:32:09.233Z,29.33
2019-04-30T07:34:40.781Z,28.20
2019-04-30T07:37:20.507Z,30.07
2019-04-30T07:39:46.635Z,28.93
2019-04-30T07:42:19.225Z,28.87
2019-04-30T07:44:51.373Z,30.50
2019-04-30T07:47:23.320Z,29.93
2019-04-30T07:49:56.028Z,30.20
2019-04-30T07:52:33.209Z,29.47
2019-04-30T07:55:02.006Z,29.10
2019-04-30T07:57:33.977Z,26.83
2019-04-30T08:00:05.948Z,30.03
2019-04-30T08:02:43.734Z,29.40
2019-04-30T08:05:35.422Z,29.77
2019-04-30T08:08:20.211Z,29.27
2019-04-30T08:10:41.319Z,28.97
2019-04-30T08:13:15.090Z,29.30
2019-04-30T08:15:49.426Z,28.63
2019-04-30T08:18:21.100Z,28.27
2019-04-30T08:20:53.066Z,29.33
2019-04-30T08:23:34.757Z,28.33
2019-04-30T08:25:58.975Z,30.87
2019-04-30T08:28:30.930Z,28.17
2019-04-30T08:31:03.000Z,28.47
2019-04-30T08:33:34.959Z,27.43
2019-04-30T08:36:06.929Z,28.53
2019-04-30T08:38:39.442Z,27.57
2019-04-30T08:41:11.525Z,29.13
2019-04-30T08:43:43.502Z,27.90
2019-04-30T08:46:15.461Z,29.37
2019-04-30T08:48:51.555Z,27.77
2019-04-30T08:51:21.306Z,27.37
2019-04-30T08:53:53.255Z,26.53
2019-04-30T08:56:25.204Z,28.10
2019-04-30T08:58:57.184Z,30.00
2019-04-30T09:01:29.584Z,29.13
2019-04-30T09:04:01.609Z,28.93
2019-04-30T09:06:33.575Z,27.00
2019-04-30T09:09:12.504Z,26.70
2019-04-30T09:11:54.705Z,28.63
2019-04-30T09:14:18.751Z,27.77
2019-04-30T09:16:51.314Z,29.30
2019-04-30T09:19:23.511Z,27.40
2019-04-30T09:21:55.463Z,30.30
2019-04-30T09:24:30.695Z,29.80
2019-04-30T09:27:01.342Z,28.77
2019-04-30T09:29:33.369Z,30.07
2019-04-30T09:32:05.340Z,30.00
2019-04-30T09:34:38.450Z,30.40
2019-04-30T09:37:10.759Z,30.70
2019-04-30T09:39:42.756Z,32.60
2019-04-30T09:42:14.714Z,32.07
2019-04-30T09:44:49.050Z,30.37
2019-04-30T09:47:20.569Z,32.70
2019-04-30T09:49:52.545Z,31.87
2019-04-30T09:52:24.565Z,34.20
2019-04-30T09:54:56.616Z,33.77
2019-04-30T09:57:29.009Z,33.87
2019-04-30T10:00:01.095Z,32.93
2019-04-30T10:02:33.065Z,34.37
2019-04-30T10:05:05.633Z,35.57
2019-04-30T10:07:39.367Z,34.93
2019-04-30T10:10:13.751Z,35.23
2019-04-30T10:12:45.803Z,35.80
2019-04-30T10:15:36.018Z,34.03
2019-04-30T10:18:08.542Z,35.00
2019-04-30T10:20:41.977Z,36.07
2019-04-30T10:23:13.974Z,33.57
2019-04-30T10:25:46.040Z,30.10
2019-04-30T10:28:19.624Z,32.97
2019-04-30T10:30:51.870Z,31.97
2019-04-30T10:33:23.833Z,33.37
2019-04-30T10:35:55.807Z,30.23
2019-04-30T10:38:29.354Z,32.50
2019-04-30T10:41:01.346Z,32.50
2019-04-30T10:43:33.338Z,33.80
2019-04-30T10:46:05.305Z,31.13
2019-04-30T10:48:37.333Z,30.53
2019-04-30T10:51:09.297Z,29.77
2019-04-30T10:53:41.268Z,30.30
2019-04-30T10:56:13.220Z,32.53
2019-04-30T10:58:45.220Z,30.70
2019-04-30T11:01:19.138Z,31.47
2019-04-30T11:03:51.046Z,30.37
2019-04-30T11:06:23.007Z,30.87
2019-04-30T11:08:55.167Z,29.80
2019-04-30T11:11:28.323Z,28.83
2019-04-30T11:14:01.188Z,29.33
2019-04-30T11:16:33.168Z,30.33
2019-04-30T11:19:05.367Z,29.63
2019-04-30T11:21:37.655Z,29.33
2019-04-30T11:24:09.858Z,31.80
2019-04-30T11:26:42.918Z,30.07
2019-04-30T11:29:15.615Z,31.67
2019-04-30T11:32:02.432Z,30.03
2019-04-30T11:34:34.647Z,29.00
2019-04-30T11:37:06.585Z,27.83
2019-04-30T11:39:38.577Z,27.50
2019-04-30T11:42:10.523Z,28.27
2019-04-30T11:44:42.530Z,28.60
2019-04-30T11:47:26.206Z,27.27
2019-04-30T11:49:58.176Z,26.60
2019-04-30T11:52:30.156Z,25.33
2019-04-30T11:55:02.133Z,27.27
2019-04-30T11:57:34.095Z,26.87
2019-04-30T12:00:08.868Z,25.73
2019-04-30T12:02:42.299Z,25.77
2019-04-30T12:05:15.090Z,25.60
2019-04-30T12:08:05.848Z,27.87
2019-04-30T12:10:57.054Z,27.07
2019-04-30T12:13:30.387Z,25.33
2019-04-30T12:16:02.360Z,22.43
2019-04-30T12:18:34.314Z,22.50
2019-04-30T12:21:06.304Z,22.33
2019-04-30T12:23:38.300Z,23.55
2019-04-30T12:26:10.363Z,23.97
2019-04-30T12:28:42.307Z,24.40
2019-04-30T12:31:14.310Z,22.60
2019-04-30T12:33:46.297Z,23.30
2019-04-30T12:36:18.887Z,22.80
2019-04-30T12:38:50.963Z,21.47
2019-04-30T12:41:22.928Z,20.73
2019-04-30T12:43:54.907Z,20.50
2019-04-30T12:46:28.781Z,20.35
2019-04-30T12:49:11.477Z,18.92
2019-04-30T12:51:51.436Z,16.40
2019-04-30T12:54:31.580Z,16.73
2019-04-30T12:57:10.935Z,17.27
2019-04-30T12:59:41.122Z,14.83
2019-04-30T13:02:13.117Z,15.03
2019-04-30T13:04:45.129Z,15.90
2019-04-30T13:07:20.059Z,15.90
2019-04-30T13:09:51.572Z,15.45
2019-04-30T13:12:24.550Z,15.35
2019-04-30T13:14:56.853Z,14.73
2019-04-30T13:17:28.871Z,14.47
2019-04-30T13:20:00.840Z,15.05
2019-04-30T13:22:32.832Z,16.25
2019-04-30T13:25:05.006Z,14.58
2019-04-30T13:27:40.498Z,15.03
2019-04-30T13:30:14.806Z,14.43
2019-04-30T13:32:53.834Z,14.07
2019-04-30T13:35:25.793Z,14.23
2019-04-30T13:38:07.715Z,13.70
2019-04-30T13:40:59.250Z,15.03
2019-04-30T13:44:09.679Z,13.25
2019-04-30T13:46:41.834Z,13.90
2019-04-30T13:49:13.817Z,13.62
2019-04-30T13:51:45.802Z,12.55
2019-04-30T13:54:17.829Z,12.70
2019-04-30T13:56:49.748Z,13.13
2019-04-30T13:59:21.732Z,11.90
2019-04-30T14:01:53.701Z,13.70
2019-04-30T14:04:34.679Z,14.10
2019-04-30T14:07:40.176Z,12.95
2019-04-30T14:10:12.495Z,13.50
2019-04-30T14:12:50.905Z,13.58
2019-04-30T14:15:22.919Z,14.35
2019-04-30T14:17:54.947Z,13.32
2019-04-30T14:20:26.947Z,13.38
2019-04-30T14:22:58.913Z,15.30
2019-04-30T14:25:30.898Z,13.25
2019-04-30T14:28:02.934Z,13.30
2019-04-30T14:30:34.915Z,13.00
2019-04-30T14:33:09.277Z,12.75
2019-04-30T14:35:40.851Z,12.35
2019-04-30T14:38:12.889Z,13.48
2019-04-30T14:40:45.603Z,12.53
2019-04-30T14:43:34.250Z,12.90
2019-04-30T14:46:32.593Z,12.15
2019-04-30T14:49:36.109Z,11.90
2019-04-30T14:52:09.349Z,11.40
2019-04-30T14:54:59.718Z,11.85
2019-04-30T14:57:54.302Z,11.63
2019-04-30T15:00:44.174Z,12.18
2019-04-30T15:03:16.764Z,11.30
2019-04-30T15:05:51.580Z,11.93
2019-04-30T15:08:22.790Z,12.75
2019-04-30T15:10:54.854Z,10.68
2019-04-30T15:13:27.037Z,12.58
2019-04-30T15:15:59.067Z,11.33
2019-04-30T15:18:31.078Z,10.30
2019-04-30T15:21:03.124Z,11.73
2019-04-30T15:23:58.764Z,10.23
2019-04-30T15:26:28.718Z,10.80
2019-04-30T15:29:00.945Z,12.35
2019-04-30T15:31:32.965Z,11.28
2019-04-30T15:34:11.100Z,12.23
2019-04-30T15:36:43.347Z,11.10
2019-04-30T15:39:35.035Z,11.93
2019-04-30T15:42:07.122Z,11.20
2019-04-30T15:44:42.644Z,11.30
2019-04-30T15:47:13.239Z,10.75
2019-04-30T15:49:45.244Z,12.33
2019-04-30T15:52:18.963Z,10.85
2019-04-30T15:54:51.136Z,11.35
2019-04-30T15:57:23.120Z,11.60
2019-04-30T15:59:55.109Z,11.33
2019-04-30T16:02:32.046Z,11.40
2019-04-30T16:05:10.990Z,11.53
2019-04-30T16:08:11.585Z,10.75
2019-04-30T16:11:08.239Z,10.50
2019-04-30T16:14:18.619Z,10.28
2019-04-30T16:17:10.305Z,12.10
2019-04-30T16:19:42.316Z,11.45
2019-04-30T16:22:14.304Z,11.68
2019-04-30T16:24:46.378Z,10.50
2019-04-30T16:27:19.174Z,10.68
2019-04-30T16:29:51.424Z,10.72
2019-04-30T16:32:23.728Z,12.23
2019-04-30T16:34:55.737Z,10.55
2019-04-30T16:37:28.695Z,10.85
2019-04-30T16:40:01.033Z,11.48
2019-04-30T16:42:33.078Z,10.55
2019-04-30T16:45:06.647Z,10.80
2019-04-30T16:47:38.659Z,8.78
2019-04-30T16:50:10.638Z,9.93
2019-04-30T16:52:42.669Z,10.65
2019-04-30T16:55:14.753Z,10.28
2019-04-30T16:57:46.734Z,10.98
2019-04-30T17:00:20.143Z,10.63
2019-04-30T17:02:58.271Z,9.18
2019-04-30T17:05:39.758Z,11.15
2019-04-30T17:08:19.323Z,10.63
2019-04-30T17:11:09.837Z,10.25
2019-04-30T17:13:48.531Z,10.60
2019-04-30T17:16:21.970Z,10.68
2019-04-30T17:18:54.045Z,11.28
2019-04-30T17:21:26.026Z,11.73
2019-04-30T17:23:58.715Z,10.30
2019-04-30T17:26:30.926Z,10.23
2019-04-30T17:29:02.950Z,9.55
2019-04-30T17:31:34.958Z,10.83
2019-04-30T17:34:07.008Z,10.80
2019-04-30T17:36:39.694Z,11.20
2019-04-30T17:39:14.644Z,10.80
2019-04-30T17:41:46.738Z,9.53
2019-04-30T17:44:18.842Z,9.93
2019-04-30T17:46:50.815Z,10.27
2019-04-30T17:49:22.819Z,10.73
2019-04-30T17:51:54.799Z,10.10
2019-04-30T17:54:26.801Z,10.80
2019-04-30T17:56:58.850Z,9.17
2019-04-30T17:59:30.857Z,9.87
2019-04-30T18:02:04.867Z,9.73
2019-04-30T18:04:36.897Z,8.90
2019-04-30T18:07:09.928Z,9.40
2019-04-30T18:09:42.082Z,9.50
2019-04-30T18:12:14.115Z,10.40
2019-04-30T18:14:46.164Z,11.50
2019-04-30T18:17:18.357Z,11.93
2019-04-30T18:19:57.459Z,12.37
2019-04-30T18:23:04.118Z,12.53
2019-04-30T18:25:44.550Z,12.83
2019-04-30T18:28:16.672Z,14.13
2019-04-30T18:30:49.157Z,13.60
2019-04-30T18:33:21.293Z,12.77
2019-04-30T18:35:53.300Z,13.30
2019-04-30T18:38:25.305Z,13.17
2019-04-30T18:40:59.361Z,14.23
2019-04-30T18:43:31.270Z,16.10
2019-04-30T18:46:03.294Z,16.77
2019-04-30T18:48:35.324Z,15.10
2019-04-30T18:51:23.558Z,14.93
2019-04-30T18:53:41.265Z,14.07
2019-04-30T18:56:14.930Z,13.23
2019-04-30T18:58:48.627Z,11.67
2019-04-30T19:01:20.849Z,12.73
2019-04-30T19:03:52.869Z,17.90
2019-04-30T19:06:26.374Z,16.70
2019-04-30T19:09:27.076Z,13.13
2019-04-30T19:12:19.427Z,11.47
2019-04-30T19:15:10.149Z,11.73
2019-04-30T19:18:07.300Z,11.53
2019-04-30T19:20:42.635Z,11.40
2019-04-30T19:23:14.692Z,11.43
2019-04-30T19:25:48.571Z,10.40
2019-04-30T19:28:20.765Z,10.53
2019-04-30T19:30:58.038Z,11.43
2019-04-30T19:33:26.742Z,10.83
2019-04-30T19:35:58.827Z,12.80
2019-04-30T19:38:30.859Z,11.60
2019-04-30T19:41:02.983Z,11.77
2019-04-30T19:43:35.061Z,10.93
2019-04-30T19:46:09.062Z,13.10
2019-04-30T19:48:41.536Z,12.60
2019-04-30T19:51:13.768Z,14.00
2019-04-30T19:53:46.078Z,12.67
2019-04-30T19:56:20.586Z,13.90
2019-04-30T19:59:01.828Z,14.17
2019-04-30T20:01:26.422Z,14.47
2019-04-30T20:03:59.140Z,13.50
2019-04-30T20:06:31.242Z,16.33
2019-04-30T20:09:05.315Z,21.17
2019-04-30T20:11:37.310Z,18.77
2019-04-30T20:14:10.435Z,19.27
2019-04-30T20:16:42.594Z,14.57
2019-04-30T20:19:14.688Z,11.87
2019-04-30T20:21:53.005Z,12.80
2019-04-30T20:24:21.182Z,11.73
2019-04-30T20:27:04.152Z,20.50
2019-04-30T20:29:28.832Z,21.90
2019-04-30T20:32:01.114Z,18.17
2019-04-30T20:34:33.158Z,17.10
2019-04-30T20:37:05.168Z,14.63
2019-04-30T20:39:46.347Z,14.50
2019-04-30T20:42:18.402Z,12.50
2019-04-30T20:44:50.452Z,12.13
2019-04-30T20:47:22.562Z,11.47
2019-04-30T20:49:54.747Z,11.40
2019-04-30T20:52:28.939Z,11.37
2019-04-30T20:55:00.890Z,11.30
2019-04-30T20:57:32.915Z,11.83
2019-04-30T21:00:05.046Z,11.37
2019-04-30T21:02:38.694Z,12.80
2019-04-30T21:05:10.940Z,13.07
2019-04-30T21:07:43.035Z,13.53
2019-04-30T21:10:15.179Z,12.57
2019-04-30T21:12:47.250Z,13.00
2019-04-30T21:15:19.728Z,12.40
2019-04-30T21:17:51.837Z,13.10
2019-04-30T21:20:23.833Z,12.33
2019-04-30T21:22:55.872Z,13.63
2019-04-30T21:25:29.154Z,12.00
2019-04-30T21:28:01.371Z,12.83
2019-04-30T21:30:33.381Z,12.63
2019-04-30T21:33:30.802Z,12.43
2019-04-30T21:36:15.863Z,12.70
2019-04-30T21:38:49.040Z,12.53
2019-04-30T21:41:21.225Z,12.37
2019-04-30T21:43:53.259Z,11.47
2019-04-30T21:46:25.238Z,12.20
2019-04-30T21:48:58.720Z,12.70
2019-04-30T21:51:30.740Z,13.67
2019-04-30T21:54:02.757Z,12.80
2019-04-30T21:56:34.799Z,12.37
2019-04-30T21:59:06.809Z,12.90
2019-04-30T22:01:38.826Z,11.43
2019-04-30T22:04:10.815Z,12.40
2019-04-30T22:06:42.894Z,12.43
2019-04-30T22:09:15.491Z,12.47
2019-04-30T22:11:49.272Z,12.53
2019-04-30T22:14:21.461Z,13.47
2019-04-30T22:16:53.445Z,13.80
2019-04-30T22:19:25.439Z,14.57
2019-04-30T22:21:59.355Z,15.10
2019-04-30T22:24:31.326Z,13.57
2019-04-30T22:27:03.344Z,14.53
2019-04-30T22:29:39.305Z,14.53
2019-04-30T22:32:09.405Z,14.90
2019-04-30T22:34:41.399Z,12.73
2019-04-30T22:37:13.409Z,13.47
2019-04-30T22:39:54.701Z,12.97
2019-04-30T22:42:29.921Z,13.37
2019-04-30T22:45:03.997Z,13.37
2019-04-30T22:47:35.987Z,13.23
2019-04-30T22:50:08.727Z,13.50
2019-04-30T22:52:40.731Z,13.43
2019-04-30T22:55:12.698Z,13.07
2019-04-30T22:57:44.645Z,14.20
2019-04-30T23:00:23.382Z,14.20
2019-04-30T23:03:01.777Z,13.43
2019-04-30T23:05:33.899Z,13.07
2019-04-30T23:08:05.875Z,20.50
2019-04-30T23:10:37.875Z,19.93
2019-04-30T23:13:09.834Z,19.37
2019-04-30T23:15:41.900Z,17.20
2019-04-30T23:18:13.920Z,16.80
2019-04-30T23:20:45.925Z,16.60
2019-04-30T23:23:17.938Z,15.70
2019-04-30T23:25:49.917Z,15.20
2019-04-30T23:28:21.882Z,15.50
2019-04-30T23:30:53.872Z,15.57
2019-04-30T23:33:25.897Z,16.13
2019-04-30T23:35:57.860Z,15.33
2019-04-30T23:38:29.842Z,16.47
2019-04-30T23:41:01.837Z,15.70
2019-04-30T23:43:33.821Z,17.57
2019-04-30T23:46:05.794Z,17.50
2019-04-30T23:48:37.939Z,16.77
2019-04-30T23:51:09.896Z,17.07
2019-04-30T23:53:41.878Z,16.87
2019-04-30T23:56:13.874Z,16.37
2019-04-30T23:58:45.825Z,15.00
